Kitwanga, Canada
Current Conditions -  °F | °C
As of 1:07 AM on Monday 22 Dec 2014 (Local Time) from CYYD Reporting Station
Haze Haze  
Wind Chill:   Ceiling: 400
Heat Index:   Visibility: 4mi
Dew Point:   Wind: 3mph
Humidity: 100%   Direction: 300°WNW
Pressure: 29.83"   Gusts: NA
Location:  55.1°N, 128.07°W
Report Text: CYYD 220907Z AUTO 30003KT 150V310 4SM BR BKN004 OVC016 M00/M00 A2983 RMK SLP120
Loading
Personal Weather Stations






























Interactive Weather Map New forecast layout! Learn more

10-Day Weather Forecast

Advertisements
Track Severe Weather on mobile